createdAt,value
2018-11-28T00:03:45.097Z,2.70
2018-11-28T00:08:50.710Z,2.80
2018-11-28T00:13:55.280Z,2.70
2018-11-28T00:19:00.070Z,2.70
2018-11-28T00:24:05.124Z,2.70
2018-11-28T00:29:13.319Z,2.60
2018-11-28T00:34:18.513Z,2.50
2018-11-28T00:39:23.350Z,2.40
2018-11-28T00:44:27.951Z,2.40
2018-11-28T00:49:32.678Z,2.40
2018-11-28T00:54:37.203Z,2.40
2018-11-28T00:59:45.441Z,2.40
2018-11-28T01:04:50.238Z,2.40
2018-11-28T01:09:54.940Z,2.40
2018-11-28T01:14:59.645Z,2.40
2018-11-28T01:20:05.247Z,2.40
2018-11-28T01:25:10.867Z,2.40
2018-11-28T01:30:24.130Z,2.40
2018-11-28T01:35:28.535Z,2.40
2018-11-28T01:40:33.345Z,2.40
2018-11-28T01:45:38.458Z,2.40
2018-11-28T01:50:43.160Z,2.50
2018-11-28T01:55:47.706Z,2.50
2018-11-28T02:00:52.273Z,2.50
2018-11-28T02:05:57.041Z,2.50
2018-11-28T02:11:02.164Z,2.50
2018-11-28T02:16:07.145Z,2.50
2018-11-28T02:21:18.005Z,2.50
2018-11-28T02:26:22.788Z,2.60
2018-11-28T02:31:28.040Z,2.60
2018-11-28T02:36:32.625Z,2.60
2018-11-28T02:41:37.243Z,2.60
2018-11-28T02:46:42.521Z,2.60
2018-11-28T02:51:47.133Z,2.60
2018-11-28T02:56:52.132Z,2.60
2018-11-28T03:01:56.778Z,2.60
2018-11-28T03:07:02.190Z,2.50
2018-11-28T03:12:06.858Z,2.60
2018-11-28T03:17:26.153Z,2.50
2018-11-28T03:22:30.679Z,2.40
2018-11-28T03:27:35.402Z,2.30
2018-11-28T03:32:40.275Z,2.20
2018-11-28T03:37:45.088Z,2.00
2018-11-28T03:42:50.710Z,1.90
2018-11-28T03:47:55.476Z,1.80
2018-11-28T03:53:00.797Z,1.80
2018-11-28T03:58:05.554Z,1.80
2018-11-28T04:03:10.108Z,1.60
2018-11-28T04:08:14.984Z,1.50
2018-11-28T04:13:19.600Z,1.40
2018-11-28T04:18:24.178Z,1.30
2018-11-28T04:23:29.107Z,1.30
2018-11-28T04:28:33.732Z,1.30
2018-11-28T04:33:38.504Z,1.20
2018-11-28T04:38:43.196Z,1.20
2018-11-28T04:43:47.804Z,1.10
2018-11-28T04:48:53.356Z,1.10
2018-11-28T04:53:58.663Z,1.00
2018-11-28T04:59:03.458Z,0.90
2018-11-28T05:04:08.922Z,0.90
2018-11-28T05:09:13.918Z,0.90
2018-11-28T05:14:18.554Z,0.90
2018-11-28T05:19:23.060Z,0.90
2018-11-28T05:24:27.954Z,0.80
2018-11-28T05:29:32.780Z,0.80
2018-11-28T05:34:37.812Z,0.80
2018-11-28T05:39:42.565Z,0.70
2018-11-28T05:44:46.985Z,0.60
2018-11-28T05:49:51.714Z,0.60
2018-11-28T05:54:56.511Z,0.60
2018-11-28T06:00:01.871Z,0.60
2018-11-28T06:05:09.113Z,0.50
2018-11-28T06:10:14.646Z,0.40
2018-11-28T06:15:19.477Z,0.30
2018-11-28T06:20:24.603Z,0.40
2018-11-28T06:25:29.087Z,0.40
2018-11-28T06:30:34.365Z,0.40
2018-11-28T06:35:42.123Z,0.50
2018-11-28T06:40:47.103Z,0.50
2018-11-28T06:45:52.911Z,0.70
2018-11-28T06:50:57.979Z,0.90
2018-11-28T06:56:03.610Z,1.10
2018-11-28T07:01:09.031Z,1.30
2018-11-28T07:06:14.299Z,1.50
2018-11-28T07:11:19.309Z,1.60
2018-11-28T07:16:27.118Z,1.80
2018-11-28T07:21:33.086Z,1.80
2018-11-28T07:26:38.006Z,1.80
2018-11-28T07:31:42.567Z,2.00
2018-11-28T07:42:16.794Z,2.30
2018-11-28T07:47:22.020Z,2.40
2018-11-28T07:52:27.181Z,2.50
2018-11-28T07:57:31.903Z,2.80
2018-11-28T08:02:36.661Z,3.10
2018-11-28T08:07:41.293Z,3.20
2018-11-28T08:12:45.992Z,3.10
2018-11-28T08:17:50.669Z,3.20
2018-11-28T08:22:55.860Z,3.30
2018-11-28T08:28:00.483Z,3.50
2018-11-28T08:33:05.091Z,3.50
2018-11-28T08:38:10.474Z,3.50
2018-11-28T08:43:14.884Z,3.50
2018-11-28T08:48:20.302Z,3.50
2018-11-28T08:53:25.168Z,3.50
2018-11-28T08:58:30.143Z,3.60
2018-11-28T09:03:34.596Z,3.70
2018-11-28T09:08:39.281Z,3.90
2018-11-28T09:13:45.046Z,4.10
2018-11-28T09:18:49.722Z,4.00
2018-11-28T09:23:54.091Z,4.00
2018-11-28T09:28:59.072Z,4.00
2018-11-28T09:34:03.624Z,4.10
2018-11-28T09:39:08.277Z,4.20
2018-11-28T09:44:13.082Z,4.40
2018-11-28T09:49:17.775Z,4.70
2018-11-28T09:54:22.311Z,4.80
2018-11-28T09:59:26.722Z,4.80
2018-11-28T10:04:31.676Z,4.70
2018-11-28T10:09:36.283Z,5.00
2018-11-28T10:14:40.838Z,4.90
2018-11-28T10:19:46.173Z,5.00
2018-11-28T10:24:50.677Z,5.20
2018-11-28T10:29:56.581Z,5.10
2018-11-28T10:35:02.534Z,5.20
2018-11-28T10:40:14.686Z,5.30
2018-11-28T10:45:20.391Z,5.30
2018-11-28T10:50:25.703Z,5.30
2018-11-28T10:55:30.208Z,5.40
2018-11-28T11:00:40.468Z,5.30
2018-11-28T11:05:52.265Z,5.20
2018-11-28T11:11:02.577Z,5.50
2018-11-28T11:16:12.194Z,5.40
2018-11-28T11:21:17.363Z,5.50
2018-11-28T11:26:23.197Z,5.40
2018-11-28T11:31:28.374Z,5.30
2018-11-28T11:36:33.803Z,5.30
2018-11-28T11:41:38.406Z,5.40
2018-11-28T11:46:43.028Z,5.60
2018-11-28T11:51:47.988Z,5.60
2018-11-28T11:56:52.583Z,5.80
2018-11-28T12:01:57.055Z,6.20
2018-11-28T12:07:01.821Z,6.20
2018-11-28T12:12:07.223Z,6.30
2018-11-28T12:17:11.928Z,6.50
2018-11-28T12:22:16.624Z,6.30
2018-11-28T12:27:21.274Z,6.30
2018-11-28T12:32:26.300Z,6.80
2018-11-28T12:37:31.067Z,6.90
2018-11-28T12:42:35.735Z,6.50
2018-11-28T12:47:40.417Z,6.40
2018-11-28T12:52:46.067Z,6.20
2018-11-28T12:57:50.996Z,6.00
2018-11-28T13:02:55.829Z,5.60
2018-11-28T13:08:00.441Z,5.60
2018-11-28T13:13:05.904Z,5.60
2018-11-28T13:18:18.207Z,5.60
2018-11-28T13:23:22.618Z,5.50
2018-11-28T13:28:32.525Z,5.60
2018-11-28T13:33:37.233Z,5.60
2018-11-28T13:38:51.220Z,5.50
2018-11-28T13:43:56.027Z,5.70
2018-11-28T13:49:00.770Z,5.70
2018-11-28T13:54:21.043Z,5.80
2018-11-28T13:59:13.251Z,5.70
2018-11-28T14:04:18.300Z,5.60
2018-11-28T14:09:23.161Z,5.50
2018-11-28T14:14:27.719Z,5.40
2018-11-28T14:19:32.378Z,5.20
2018-11-28T14:24:36.969Z,5.10
2018-11-28T14:29:41.709Z,4.90
2018-11-28T14:34:47.902Z,5.00
2018-11-28T14:39:52.591Z,5.00
2018-11-28T14:44:57.088Z,4.70
2018-11-28T14:50:01.548Z,4.60
2018-11-28T14:55:09.952Z,4.50
2018-11-28T15:00:20.288Z,4.30
2018-11-28T15:05:49.529Z,4.10
2018-11-28T15:11:11.050Z,4.00
2018-11-28T15:16:15.668Z,4.00
2018-11-28T15:21:20.119Z,3.90
2018-11-28T15:26:24.596Z,3.80
2018-11-28T15:31:29.574Z,3.70
2018-11-28T15:36:35.057Z,3.70
2018-11-28T15:41:40.318Z,3.50
2018-11-28T15:46:45.293Z,3.40
2018-11-28T15:51:49.884Z,3.40
2018-11-28T15:56:57.458Z,3.40
2018-11-28T16:02:02.149Z,3.30
2018-11-28T16:07:08.029Z,3.30
2018-11-28T16:12:13.980Z,3.00
2018-11-28T16:17:19.187Z,2.80
2018-11-28T16:22:24.696Z,2.80
2018-11-28T16:27:29.361Z,2.70
2018-11-28T16:32:35.190Z,2.60
2018-11-28T16:37:40.603Z,2.50
2018-11-28T16:42:45.739Z,2.70
2018-11-28T16:47:50.492Z,2.60
2018-11-28T16:52:55.150Z,2.50
2018-11-28T16:58:00.915Z,2.40
2018-11-28T17:03:06.688Z,2.30
2018-11-28T17:08:11.418Z,2.40
2018-11-28T17:13:18.705Z,2.40
2018-11-28T17:18:23.475Z,2.40
2018-11-28T17:23:28.945Z,2.40
2018-11-28T17:28:33.760Z,2.40
2018-11-28T17:33:38.976Z,2.40
2018-11-28T17:38:44.594Z,2.40
2018-11-28T17:43:49.232Z,2.30
2018-11-28T17:48:54.393Z,2.20
2018-11-28T17:53:59.743Z,2.10
2018-11-28T17:59:04.487Z,1.90
2018-11-28T18:04:09.259Z,1.90
2018-11-28T18:09:14.965Z,1.90
2018-11-28T18:14:22.546Z,1.80
2018-11-28T18:19:27.629Z,1.80
2018-11-28T18:24:32.420Z,2.00
2018-11-28T18:29:37.273Z,1.90
2018-11-28T18:34:41.949Z,1.80
2018-11-28T18:39:47.227Z,1.70
2018-11-28T18:44:58.297Z,1.50
2018-11-28T18:50:03.322Z,1.30
2018-11-28T18:55:16.388Z,1.30
2018-11-28T19:00:17.698Z,1.40
2018-11-28T19:05:22.610Z,1.50
2018-11-28T19:10:27.519Z,1.50
2018-11-28T19:15:32.528Z,1.40
2018-11-28T19:20:37.713Z,1.20
2018-11-28T19:25:49.727Z,1.10
2018-11-28T19:30:49.027Z,1.10
2018-11-28T19:35:53.842Z,1.20
2018-11-28T19:41:00.882Z,1.20
2018-11-28T19:46:06.141Z,1.10
2018-11-28T19:51:11.774Z,1.10
2018-11-28T19:56:17.977Z,1.20
2018-11-28T20:01:22.856Z,1.30
2018-11-28T20:06:28.419Z,1.40
2018-11-28T20:11:33.512Z,1.60
2018-11-28T20:16:48.658Z,1.70
2018-11-28T20:21:53.508Z,1.80
2018-11-28T20:26:58.098Z,1.80
2018-11-28T20:32:03.701Z,1.80
2018-11-28T20:37:08.336Z,1.90
2018-11-28T20:42:12.909Z,2.00
2018-11-28T20:47:17.617Z,2.00
2018-11-28T20:52:22.239Z,2.10
2018-11-28T20:57:27.423Z,2.10
2018-11-28T21:02:32.575Z,2.10
2018-11-28T21:07:37.334Z,2.10
2018-11-28T21:12:42.713Z,2.30
2018-11-28T21:17:47.708Z,2.40
2018-11-28T21:22:54.359Z,2.40
2018-11-28T21:27:59.245Z,2.40
2018-11-28T21:33:04.461Z,2.30
2018-11-28T21:38:09.756Z,2.40
2018-11-28T21:43:14.526Z,2.40
2018-11-28T21:48:19.142Z,2.30
2018-11-28T21:53:24.021Z,2.20
2018-11-28T21:58:33.051Z,2.20
2018-11-28T22:03:38.168Z,2.10
2018-11-28T22:08:49.492Z,1.90
2018-11-28T22:13:54.156Z,1.90
2018-11-28T22:18:58.940Z,1.80
2018-11-28T22:24:06.465Z,1.80
2018-11-28T22:29:11.169Z,1.90
2018-11-28T22:34:16.413Z,2.00
2018-11-28T22:39:21.353Z,2.00
2018-11-28T22:44:26.315Z,2.00
2018-11-28T22:49:31.329Z,2.00
2018-11-28T22:54:36.344Z,2.00
2018-11-28T22:59:41.148Z,2.00
2018-11-28T23:04:45.986Z,2.00
2018-11-28T23:09:50.585Z,2.00
2018-11-28T23:14:55.553Z,2.00
2018-11-28T23:20:01.336Z,2.10
2018-11-28T23:25:10.127Z,2.20
2018-11-28T23:30:15.991Z,2.30
2018-11-28T23:35:22.156Z,2.30
2018-11-28T23:40:27.819Z,2.30
2018-11-28T23:45:32.860Z,2.30
2018-11-28T23:50:38.440Z,2.30
2018-11-28T23:55:45.883Z,2.20
